Jump to content


FEDEX FLIGHT FX229 FLOWN ON 06-06-2017 BY CAPTAIN TYLER HANUS

Pilot StatsCaptain Tyler Hanus (LDP525) • 244.8 total hours • 53 total flights [View Logbook]
FLIGHT DETAILS
StatusReceived and approved on 2017-06-06 at 14:06:05
Origin AirportMetro Oakland Intl (KOAK) • Oakland, California, United States (6 feet MSL)
Filed Flight PlanKOAK DYBLO J84 OAK J1 OED J501 TOU J523 YZP TR19 FRIED J804R MDO J179 ENM G583 BISIV Y116 LUBEK V8 AWE V7 ASIBE Y116 CHITO Y12 HAKOD Y14 GOLDO Y381 KOMAT Y384 ROKKO V55 ITE RJBB
Destination AirportKansai Intl (RJBB) • Osaka, Japan (15 feet MSL)
Alternate AirportNone Filed
AirlineFedEx
AircraftBoeing 777-200 Freighter (77F / B777-200F)
FS Aircraft UsedPMDG 777-FS2 FedEx Express
Cruising AltitudeFL340
Distance Flown4,696 nautical miles
Cargo Onboard85,000 lbs (62.63% full)
DEPARTURE DETAILS
Time Out14:49:28
Taxi Data683,880 lbs total with 287,080 lbs of fuel onboard
Takeoff Data15:13:25 (24 minutes after leaving gate/ramp) • 681,725 lbs total • 9° pitch at 165 knots
Departure METARKOAK 051953Z 31008KT 10SM FEW200 22/11 A2991 RMK AO2 SLP128 T02220111
ARRIVAL DETAILS
Landing Data03:15:05 • 468,848 lbs total • 3° pitch doing 135 knots at a rate of -197.62 feet/minute with 71,411 lbs of fuel onboard
Time In03:21:24 (6 minutes after landing)
Ramp Weight468,211 lbs total
Total Fuel Used215,669 lbs
Total Block Time12:53:46 (12.9 hours) while 30 minutes were spent on the ground
Arrival METARRJBB 061800Z AUTO 17015KT 9999 FEW036 BKN042 OVC060 20/17 Q1015 NOSIG
MISCELLANEOUS DETAILS
LiveDISPATCH Version4.8.3.1
FS Version
FSUIPC Version4.96
OS VersionWindows 7 32-bit
Screen Resolution1360 x 768
Pilot's CommentsNo Comments Reported
FLIGHT MAP